Accueil
METAR-TAF:

METAR-TAF

Aéroports :

Aéroport international de Pittsburgh

Pittsburgh, Pennsylvanie, États-Unis

latitude: 40-30-14N, longitude: 080-15-59W, altitude: 366 m

Observation

Le bulletin a été fait il y a 11 minutes, à 01:51 UTC
Vent 5 kt de ouest
Température 3°C
Humidité 60%
Pression 1023 hPa
Visibilité: 16.1 km
Ciel couvert à une hauteur de 18000 ft

METAR: KPIT 220151Z 28005KT 10SM OVC180 03/M04 A3021 RMK AO2 SLP246 T00281044

Heure: 21:02 (02:02 UTC)

Prévision

Le bulletin a été fait il y a 2 heures et 42 minutes, à 23:20 UTC
Prévision valable du 22 à 00 UTC au 23 à 06 UTC
Vent 5 kt de direction variable
Visibilité: 10 km
Nuages fragmentés à une hauteur de 25000 ft

TAF: KPIT 212320Z 2200/2306 VRB05KT P6SM BKN250

Observations et prévisions météorologiques de plus de 4000 aéroports (messages METAR et TAF).

Les stations disponibles sont représentées par des disques jaunes et rouges sur la carte.

Passer la souris dessus pour voir le nom de la station.

Cliquer dessus pour voir les observations et prévisions météorologiques.

Pour changer de carte: cliquez sur les boutons verts avec une croix noire pour zoomer, sur le bouton vert avec un tiret pour effectuer un zoom arrière, ou sur les flèches vertes pour les cartes adjacentes.


METAR-TAF: